createdAt,value
2023-02-19T00:01:16.113Z,82.78
2023-02-19T00:03:47.835Z,83.02
2023-02-19T00:06:14.639Z,83.18
2023-02-19T00:08:41.472Z,83.32
2023-02-19T00:11:11.842Z,83.14
2023-02-19T00:13:41.274Z,83.30
2023-02-19T00:16:12.452Z,83.19
2023-02-19T00:18:39.593Z,82.49
2023-02-19T00:21:06.605Z,82.38
2023-02-19T00:23:34.213Z,82.37
2023-02-19T00:26:17.597Z,82.37
2023-02-19T00:28:46.121Z,82.09
2023-02-19T00:31:23.728Z,82.39
2023-02-19T00:33:53.519Z,82.35
2023-02-19T00:36:21.430Z,82.18
2023-02-19T00:38:48.822Z,82.11
2023-02-19T00:41:20.037Z,81.80
2023-02-19T00:43:56.565Z,81.64
2023-02-19T00:46:34.011Z,81.64
2023-02-19T00:49:01.566Z,81.72
2023-02-19T00:51:31.532Z,81.84
2023-02-19T00:53:58.990Z,81.86
2023-02-19T00:56:26.237Z,81.82
2023-02-19T00:58:53.574Z,82.03
2023-02-19T01:01:21.339Z,82.35
2023-02-19T01:03:48.338Z,82.48
2023-02-19T01:06:17.424Z,82.99
2023-02-19T01:08:44.767Z,83.23
2023-02-19T01:11:12.566Z,83.72
2023-02-19T01:13:40.018Z,84.01
2023-02-19T01:16:15.655Z,84.36
2023-02-19T01:18:43.226Z,84.06
2023-02-19T01:21:15.432Z,83.76
2023-02-19T01:23:42.605Z,83.54
2023-02-19T01:26:14.078Z,83.40
2023-02-19T01:28:40.915Z,83.48
2023-02-19T01:31:12.180Z,83.45
2023-02-19T01:33:39.587Z,83.07
2023-02-19T01:36:07.399Z,83.23
2023-02-19T01:38:34.291Z,83.48
2023-02-19T01:41:05.012Z,83.60
2023-02-19T01:43:33.634Z,83.77
2023-02-19T01:46:01.478Z,84.01
2023-02-19T01:48:36.035Z,84.09
2023-02-19T01:51:09.605Z,84.78
2023-02-19T01:53:40.135Z,84.80
2023-02-19T01:56:08.543Z,84.84
2023-02-19T01:58:37.162Z,85.25
2023-02-19T02:01:07.421Z,85.21
2023-02-19T02:03:38.014Z,85.52
2023-02-19T02:06:11.591Z,85.36
2023-02-19T02:08:54.219Z,85.52
2023-02-19T02:11:21.595Z,85.35
2023-02-19T02:13:49.196Z,85.53
2023-02-19T02:16:31.458Z,85.51
2023-02-19T02:19:12.065Z,86.04
2023-02-19T02:21:45.963Z,85.91
2023-02-19T02:24:43.591Z,86.02
2023-02-19T02:27:42.421Z,86.01
2023-02-19T02:30:39.923Z,86.10
2023-02-19T02:33:30.848Z,86.36
2023-02-19T02:36:03.745Z,86.46
2023-02-19T02:38:33.404Z,86.40
2023-02-19T02:41:01.063Z,86.81
2023-02-19T02:43:29.074Z,86.67
2023-02-19T02:45:56.008Z,86.56
2023-02-19T02:48:41.647Z,86.68
2023-02-19T02:51:29.698Z,86.43
2023-02-19T02:54:27.965Z,86.68
2023-02-19T02:56:56.608Z,86.71
2023-02-19T02:59:27.929Z,86.83
2023-02-19T03:02:14.970Z,86.87
2023-02-19T03:05:04.878Z,86.41
2023-02-19T03:07:39.006Z,86.77
2023-02-19T03:10:10.433Z,86.58
2023-02-19T03:12:56.336Z,86.30
2023-02-19T03:15:40.626Z,86.27
2023-02-19T03:18:27.248Z,86.75
2023-02-19T03:20:58.137Z,86.49
2023-02-19T03:23:45.621Z,85.96
2023-02-19T03:26:14.150Z,86.28
2023-02-19T03:29:05.172Z,86.43
2023-02-19T03:31:33.621Z,86.39
2023-02-19T03:34:05.540Z,86.48
2023-02-19T03:36:39.684Z,86.66
2023-02-19T03:39:09.249Z,86.36
2023-02-19T03:41:43.582Z,86.09
2023-02-19T03:44:20.172Z,86.26
2023-02-19T03:47:03.738Z,86.53
2023-02-19T03:49:48.886Z,86.64
2023-02-19T03:52:32.284Z,86.49
2023-02-19T03:55:20.106Z,86.62
2023-02-19T03:58:08.382Z,86.44
2023-02-19T04:00:50.337Z,86.19
2023-02-19T04:03:28.297Z,86.42
2023-02-19T04:06:02.201Z,86.67
2023-02-19T04:08:32.120Z,86.43
2023-02-19T04:11:03.447Z,86.26
2023-02-19T04:13:38.838Z,86.37
2023-02-19T04:16:15.002Z,86.43
2023-02-19T04:18:46.935Z,85.91
2023-02-19T04:21:15.664Z,86.10
2023-02-19T04:23:44.855Z,86.01
2023-02-19T04:26:15.191Z,86.36
2023-02-19T04:28:44.238Z,86.29
2023-02-19T04:31:11.701Z,86.47
2023-02-19T04:33:38.766Z,86.02
2023-02-19T04:36:07.205Z,86.02
2023-02-19T04:38:33.917Z,86.23
2023-02-19T04:41:00.725Z,86.24
2023-02-19T04:43:27.536Z,85.95
2023-02-19T04:45:54.467Z,86.23
2023-02-19T04:48:21.319Z,86.50
2023-02-19T04:50:48.700Z,86.27
2023-02-19T04:53:15.482Z,86.42
2023-02-19T04:55:42.229Z,86.21
2023-02-19T04:58:08.992Z,86.21
2023-02-19T05:00:35.805Z,86.28
2023-02-19T05:03:02.539Z,86.52
2023-02-19T05:05:29.440Z,86.58
2023-02-19T05:07:56.236Z,86.44
2023-02-19T05:10:23.250Z,86.66
2023-02-19T05:12:50.168Z,86.97
2023-02-19T05:15:16.910Z,86.56
2023-02-19T05:17:43.691Z,86.58
2023-02-19T05:20:10.787Z,86.89
2023-02-19T05:22:37.613Z,87.20
2023-02-19T05:25:05.024Z,86.88
2023-02-19T05:27:32.362Z,87.20
2023-02-19T05:29:59.178Z,87.30
2023-02-19T05:32:26.056Z,87.08
2023-02-19T05:34:52.915Z,86.86
2023-02-19T05:37:19.772Z,87.07
2023-02-19T05:39:46.504Z,87.13
2023-02-19T05:42:15.122Z,87.40
2023-02-19T05:44:42.753Z,87.31
2023-02-19T05:47:09.776Z,87.25
2023-02-19T05:49:36.585Z,87.11
2023-02-19T05:52:04.742Z,87.49
2023-02-19T05:54:31.856Z,87.61
2023-02-19T05:56:58.982Z,87.26
2023-02-19T05:59:27.574Z,87.02
2023-02-19T06:01:55.784Z,87.46
2023-02-19T06:04:23.605Z,87.20
2023-02-19T06:06:50.727Z,87.04
2023-02-19T06:09:17.854Z,86.78
2023-02-19T06:11:45.129Z,86.68
2023-02-19T06:14:14.005Z,86.64
2023-02-19T06:16:41.141Z,86.59
2023-02-19T06:19:08.071Z,86.87
2023-02-19T06:21:35.389Z,86.97
2023-02-19T06:24:07.612Z,87.00
2023-02-19T06:26:34.533Z,87.08
2023-02-19T06:29:01.482Z,86.85
2023-02-19T06:31:28.607Z,86.36
2023-02-19T06:33:55.479Z,86.91
2023-02-19T06:36:22.397Z,86.47
2023-02-19T06:38:49.375Z,86.75
2023-02-19T06:41:16.608Z,86.32
2023-02-19T06:43:43.500Z,86.25
2023-02-19T06:46:12.107Z,86.45
2023-02-19T06:48:40.651Z,86.38
2023-02-19T06:51:08.154Z,85.75
2023-02-19T06:53:34.948Z,85.57
2023-02-19T06:56:05.701Z,85.25
2023-02-19T06:58:33.754Z,85.24
2023-02-19T07:01:00.641Z,85.30
2023-02-19T07:03:27.543Z,85.40
2023-02-19T07:05:54.500Z,85.23
2023-02-19T07:08:21.637Z,85.08
2023-02-19T07:10:57.103Z,85.06
2023-02-19T07:13:25.229Z,85.05
2023-02-19T07:15:52.367Z,84.91
2023-02-19T07:18:19.495Z,84.86
2023-02-19T07:20:46.262Z,84.85
2023-02-19T07:23:13.086Z,85.11
2023-02-19T07:25:40.228Z,85.12
2023-02-19T07:28:07.934Z,84.97
2023-02-19T07:30:35.406Z,85.28
2023-02-19T07:33:02.431Z,85.50
2023-02-19T07:35:29.435Z,85.38
2023-02-19T07:37:56.185Z,85.26
2023-02-19T07:40:22.982Z,85.27
2023-02-19T07:42:49.776Z,85.18
2023-02-19T07:45:17.219Z,85.25
2023-02-19T07:47:44.112Z,85.33
2023-02-19T07:50:13.692Z,85.31
2023-02-19T07:52:41.027Z,85.31
2023-02-19T07:55:07.931Z,85.33
2023-02-19T07:57:34.682Z,85.63
2023-02-19T08:00:01.644Z,85.54
2023-02-19T08:02:44.201Z,85.71
2023-02-19T08:05:11.095Z,85.61
2023-02-19T08:07:38.067Z,85.43
2023-02-19T08:10:21.209Z,85.46
2023-02-19T08:13:12.208Z,85.41
2023-02-19T08:15:39.093Z,85.41
2023-02-19T08:18:05.834Z,85.39
2023-02-19T08:20:32.591Z,85.45
2023-02-19T08:22:59.425Z,84.97
2023-02-19T08:25:26.286Z,84.76
2023-02-19T08:27:53.033Z,84.54
2023-02-19T08:30:19.908Z,84.52
2023-02-19T08:32:46.790Z,84.67
2023-02-19T08:35:13.661Z,84.44
2023-02-19T08:37:40.483Z,84.67
2023-02-19T08:40:07.468Z,85.02
2023-02-19T08:42:34.477Z,84.71
2023-02-19T08:45:01.305Z,84.76
2023-02-19T08:47:28.105Z,84.95
2023-02-19T08:49:54.831Z,85.09
2023-02-19T08:52:21.614Z,84.92
2023-02-19T08:54:48.449Z,84.53
2023-02-19T08:57:15.391Z,84.07
2023-02-19T08:59:42.169Z,83.93
2023-02-19T09:02:09.660Z,83.68
2023-02-19T09:04:37.833Z,84.02
2023-02-19T09:07:07.949Z,83.88
2023-02-19T09:09:37.735Z,83.78
2023-02-19T09:12:06.036Z,83.79
2023-02-19T09:14:34.820Z,83.25
2023-02-19T09:17:03.032Z,83.30
2023-02-19T09:19:30.429Z,83.77
2023-02-19T09:21:57.419Z,83.80
2023-02-19T09:24:25.179Z,83.65
2023-02-19T09:26:53.455Z,83.69
2023-02-19T09:29:22.382Z,83.30
2023-02-19T09:31:49.359Z,83.22
2023-02-19T09:34:16.110Z,83.14
2023-02-19T09:36:42.920Z,82.94
2023-02-19T09:39:12.474Z,83.78
2023-02-19T09:41:46.567Z,83.74
2023-02-19T09:44:19.432Z,83.69
2023-02-19T09:46:50.050Z,83.57
2023-02-19T09:49:28.145Z,83.66
2023-02-19T09:52:00.424Z,83.71
2023-02-19T09:54:30.356Z,84.10
2023-02-19T09:57:01.529Z,84.59
2023-02-19T09:59:33.597Z,83.93
2023-02-19T10:02:11.240Z,83.45
2023-02-19T10:04:41.980Z,83.14
2023-02-19T10:07:19.744Z,82.38
2023-02-19T10:09:55.188Z,81.70
2023-02-19T10:12:27.471Z,81.18
2023-02-19T10:15:01.530Z,81.03
2023-02-19T10:17:34.715Z,80.42
2023-02-19T10:20:04.460Z,79.97
2023-02-19T10:22:34.038Z,79.63
2023-02-19T10:25:00.897Z,78.21
2023-02-19T10:27:31.423Z,77.28
2023-02-19T10:30:00.490Z,76.73
2023-02-19T10:32:29.562Z,76.83
2023-02-19T10:35:13.753Z,77.14
2023-02-19T10:37:50.621Z,77.36
2023-02-19T10:40:20.868Z,77.20
2023-02-19T10:42:50.795Z,77.35
2023-02-19T10:45:28.607Z,77.56
2023-02-19T10:47:56.576Z,77.54
2023-02-19T10:50:28.265Z,77.90
2023-02-19T10:52:58.299Z,77.67
2023-02-19T10:55:29.225Z,77.84
2023-02-19T10:57:57.231Z,77.31
2023-02-19T11:00:30.417Z,77.00
2023-02-19T11:03:14.906Z,76.38
2023-02-19T11:05:50.736Z,76.03
2023-02-19T11:08:24.139Z,75.52
2023-02-19T11:10:51.224Z,75.31
2023-02-19T11:13:31.031Z,75.78
2023-02-19T11:15:59.848Z,75.55
2023-02-19T11:18:30.720Z,75.01
2023-02-19T11:21:07.270Z,74.92
2023-02-19T11:23:45.058Z,75.13
2023-02-19T11:26:20.637Z,75.27
2023-02-19T11:28:56.613Z,75.62
2023-02-19T11:31:29.019Z,75.23
2023-02-19T11:33:58.044Z,74.96
2023-02-19T11:36:30.472Z,74.37
2023-02-19T11:39:07.237Z,74.71
2023-02-19T11:41:59.301Z,74.25
2023-02-19T11:44:43.188Z,74.14
2023-02-19T11:47:28.170Z,74.58
2023-02-19T11:50:10.589Z,75.35
2023-02-19T11:52:43.489Z,75.74
2023-02-19T11:55:25.716Z,75.23
2023-02-19T11:58:09.055Z,75.14
2023-02-19T12:00:49.768Z,75.27
2023-02-19T12:03:56.020Z,75.76
2023-02-19T12:06:38.844Z,76.07
2023-02-19T12:09:33.054Z,75.91
2023-02-19T12:12:07.130Z,75.84
2023-02-19T12:18:38.513Z,76.88
2023-02-19T12:21:22.132Z,76.99
2023-02-19T12:23:54.282Z,76.94
2023-02-19T12:26:52.506Z,76.69
2023-02-19T12:29:35.804Z,76.65
2023-02-19T12:32:28.208Z,76.04
2023-02-19T12:35:11.239Z,76.21
2023-02-19T12:37:39.033Z,76.40
2023-02-19T12:40:30.186Z,76.55
2023-02-19T12:43:00.322Z,77.27
2023-02-19T12:45:36.622Z,76.71
2023-02-19T12:48:11.715Z,75.96
2023-02-19T12:50:40.551Z,76.19
2023-02-19T12:53:30.536Z,76.36
2023-02-19T12:55:59.652Z,76.07
2023-02-19T12:58:35.551Z,76.25
2023-02-19T13:01:04.000Z,75.90
2023-02-19T13:03:34.369Z,75.30
2023-02-19T13:06:24.646Z,74.93
2023-02-19T13:09:06.514Z,74.71
2023-02-19T13:11:46.789Z,74.70
2023-02-19T13:14:24.518Z,74.72
2023-02-19T13:17:00.296Z,73.93
2023-02-19T13:19:27.092Z,74.10
2023-02-19T13:22:21.081Z,73.57
2023-02-19T13:24:49.713Z,74.40
2023-02-19T13:27:35.440Z,74.54
2023-02-19T13:30:17.637Z,74.28
2023-02-19T13:32:55.976Z,73.90
2023-02-19T13:35:32.113Z,74.01
2023-02-19T13:38:02.739Z,73.79
2023-02-19T13:40:33.301Z,74.26
2023-02-19T13:43:02.814Z,73.97
2023-02-19T13:45:33.203Z,74.24
2023-02-19T13:48:03.216Z,73.92
2023-02-19T13:50:33.344Z,73.41
2023-02-19T13:53:02.275Z,73.00
2023-02-19T13:55:46.707Z,73.55
2023-02-19T13:58:37.638Z,73.91
2023-02-19T14:01:10.565Z,73.42
2023-02-19T14:03:37.581Z,73.58
2023-02-19T14:06:07.208Z,72.65
2023-02-19T14:08:49.490Z,71.22
2023-02-19T14:11:17.004Z,71.25
2023-02-19T14:13:51.409Z,71.36
2023-02-19T14:16:35.097Z,71.70
2023-02-19T14:19:01.953Z,71.09
2023-02-19T14:21:44.092Z,71.16
2023-02-19T14:24:15.100Z,71.07
2023-02-19T14:26:42.455Z,71.30
2023-02-19T14:29:14.798Z,70.90
2023-02-19T14:31:45.543Z,71.41
2023-02-19T14:34:23.113Z,71.19
2023-02-19T14:37:01.406Z,71.21
2023-02-19T14:39:33.245Z,70.68
2023-02-19T14:42:05.771Z,71.15
2023-02-19T14:44:47.357Z,70.83
2023-02-19T14:47:18.324Z,69.85
2023-02-19T14:49:50.742Z,70.30
2023-02-19T14:52:25.608Z,69.94
2023-02-19T14:55:04.285Z,70.28
2023-02-19T14:57:36.110Z,69.66
2023-02-19T15:00:22.006Z,70.03
2023-02-19T15:02:51.009Z,70.77
2023-02-19T15:05:22.091Z,71.08
2023-02-19T15:07:49.920Z,71.37
2023-02-19T15:10:18.870Z,70.94
2023-02-19T15:12:51.825Z,71.49
2023-02-19T15:15:23.246Z,71.28
2023-02-19T15:17:53.034Z,71.00
2023-02-19T15:20:25.801Z,70.62
2023-02-19T15:22:54.763Z,70.75
2023-02-19T15:25:24.416Z,71.01
2023-02-19T15:27:51.227Z,70.81
2023-02-19T15:30:22.329Z,70.46
2023-02-19T15:32:54.118Z,70.20
2023-02-19T15:35:22.883Z,70.22
2023-02-19T15:37:51.027Z,70.50
2023-02-19T15:40:20.759Z,70.94
2023-02-19T15:42:48.113Z,70.90
2023-02-19T15:45:16.289Z,71.30
2023-02-19T15:47:50.409Z,71.11
2023-02-19T15:50:18.991Z,71.97
2023-02-19T15:53:04.558Z,71.98
2023-02-19T15:55:40.729Z,71.44
2023-02-19T15:58:13.710Z,71.32
2023-02-19T16:00:56.120Z,71.34
2023-02-19T16:03:25.418Z,71.37
2023-02-19T16:06:11.384Z,71.01
2023-02-19T16:08:40.621Z,70.52
2023-02-19T16:11:23.945Z,70.23
2023-02-19T16:13:52.043Z,70.17
2023-02-19T16:16:25.852Z,70.33
2023-02-19T16:18:53.985Z,70.25
2023-02-19T16:21:24.658Z,70.13
2023-02-19T16:24:01.929Z,70.22
2023-02-19T16:26:29.155Z,70.57
2023-02-19T16:29:22.164Z,70.29
2023-02-19T16:31:52.229Z,70.16
2023-02-19T16:34:34.398Z,69.16
2023-02-19T16:37:02.762Z,69.09
2023-02-19T16:39:29.999Z,68.97
2023-02-19T16:42:00.300Z,69.08
2023-02-19T16:44:28.055Z,69.23
2023-02-19T16:46:58.111Z,69.16
2023-02-19T16:49:25.134Z,69.41
2023-02-19T16:51:52.404Z,69.35
2023-02-19T16:54:19.209Z,69.68
2023-02-19T16:57:01.669Z,69.69
2023-02-19T16:59:28.487Z,69.99
2023-02-19T17:01:55.247Z,70.44
2023-02-19T17:04:22.349Z,70.09
2023-02-19T17:06:49.356Z,70.63
2023-02-19T17:09:16.351Z,70.52
2023-02-19T17:11:43.234Z,70.80
2023-02-19T17:14:10.270Z,70.10
2023-02-19T17:16:40.662Z,70.17
2023-02-19T17:19:16.117Z,70.32
2023-02-19T17:21:43.383Z,70.25
2023-02-19T17:24:11.254Z,70.18
2023-02-19T17:26:38.094Z,70.31
2023-02-19T17:29:06.842Z,70.32
2023-02-19T17:31:34.359Z,70.05
2023-02-19T17:34:01.248Z,69.73
2023-02-19T17:36:30.950Z,69.47
2023-02-19T17:38:59.117Z,69.20
2023-02-19T17:41:26.552Z,69.23
2023-02-19T17:43:53.632Z,68.66
2023-02-19T17:46:24.489Z,68.70
2023-02-19T17:48:52.704Z,68.36
2023-02-19T17:51:19.638Z,68.20
2023-02-19T17:53:47.507Z,68.39
2023-02-19T17:56:18.474Z,68.81
2023-02-19T17:59:00.821Z,68.91
2023-02-19T18:01:27.917Z,69.06
2023-02-19T18:03:54.810Z,69.27
2023-02-19T18:06:21.596Z,69.79
2023-02-19T18:08:50.409Z,70.01
2023-02-19T18:11:17.749Z,70.43
2023-02-19T18:13:44.603Z,70.81
2023-02-19T18:16:11.877Z,71.13
2023-02-19T18:18:38.869Z,71.26
2023-02-19T18:21:09.726Z,71.49
2023-02-19T18:23:37.546Z,71.43
2023-02-19T18:26:10.346Z,71.40
2023-02-19T18:28:38.490Z,71.42
2023-02-19T18:31:05.861Z,71.62
2023-02-19T18:33:34.417Z,71.60
2023-02-19T18:36:01.369Z,71.77
2023-02-19T18:38:28.296Z,71.64
2023-02-19T18:40:56.389Z,71.78
2023-02-19T18:43:24.826Z,71.38
2023-02-19T18:45:51.783Z,71.73
2023-02-19T18:48:18.830Z,71.55
2023-02-19T18:50:45.736Z,71.39
2023-02-19T18:53:14.023Z,70.97
2023-02-19T18:55:42.297Z,70.90
2023-02-19T18:58:09.511Z,70.86
2023-02-19T19:00:37.427Z,70.72
2023-02-19T19:03:05.259Z,70.35
2023-02-19T19:05:32.321Z,70.03
2023-02-19T19:07:59.803Z,69.68
2023-02-19T19:10:27.502Z,69.52
2023-02-19T19:12:54.651Z,70.08
2023-02-19T19:15:22.399Z,70.09
2023-02-19T19:17:49.812Z,69.98
2023-02-19T19:20:19.983Z,70.13
2023-02-19T19:22:54.915Z,69.94
2023-02-19T19:25:23.149Z,70.07
2023-02-19T19:28:08.631Z,70.23
2023-02-19T19:30:35.752Z,70.00
2023-02-19T19:33:03.733Z,70.21
2023-02-19T19:35:30.784Z,70.27
2023-02-19T19:37:57.620Z,70.85
2023-02-19T19:40:24.473Z,70.48
2023-02-19T19:42:52.722Z,70.13
2023-02-19T19:45:20.653Z,70.33
2023-02-19T19:47:48.907Z,70.13
2023-02-19T19:50:18.280Z,70.14
2023-02-19T19:52:45.183Z,70.49
2023-02-19T19:55:11.960Z,70.79
2023-02-19T19:57:40.857Z,70.65
2023-02-19T20:00:09.293Z,70.76
2023-02-19T20:02:39.430Z,70.52
2023-02-19T20:05:06.895Z,70.67
2023-02-19T20:07:34.166Z,70.90
2023-02-19T20:10:00.920Z,70.94
2023-02-19T20:12:28.006Z,71.14
2023-02-19T20:14:55.158Z,71.18
2023-02-19T20:17:22.251Z,70.84
2023-02-19T20:19:49.052Z,71.06
2023-02-19T20:22:16.418Z,71.06
2023-02-19T20:24:43.195Z,71.04
2023-02-19T20:27:09.937Z,71.05
2023-02-19T20:29:36.848Z,71.31
2023-02-19T20:32:04.062Z,71.34
2023-02-19T20:34:31.508Z,71.63
2023-02-19T20:36:59.721Z,71.66
2023-02-19T20:39:29.246Z,71.92
2023-02-19T20:41:57.990Z,72.23
2023-02-19T20:44:26.339Z,72.29
2023-02-19T20:46:54.249Z,72.50
2023-02-19T20:49:38.120Z,72.23
2023-02-19T20:52:07.421Z,72.46
2023-02-19T20:54:35.811Z,72.54
2023-02-19T20:57:04.812Z,72.81
2023-02-19T20:59:35.553Z,72.61
2023-02-19T21:02:06.346Z,72.47
2023-02-19T21:04:34.103Z,72.65
2023-02-19T21:07:01.079Z,72.57
2023-02-19T21:09:28.582Z,72.34
2023-02-19T21:11:55.321Z,72.28
2023-02-19T21:14:22.190Z,72.38
2023-02-19T21:17:04.460Z,72.30
2023-02-19T21:19:31.320Z,72.18
2023-02-19T21:22:13.510Z,72.35
2023-02-19T21:24:40.219Z,72.58
2023-02-19T21:27:07.120Z,72.39
2023-02-19T21:29:34.118Z,72.44
2023-02-19T21:32:01.401Z,72.57
2023-02-19T21:34:29.978Z,72.95
2023-02-19T21:36:57.864Z,73.18
2023-02-19T21:39:25.846Z,73.34
2023-02-19T21:41:52.832Z,73.34
2023-02-19T21:44:21.245Z,73.47
2023-02-19T21:46:48.637Z,73.67
2023-02-19T21:49:15.549Z,73.73
2023-02-19T21:51:44.167Z,73.76
2023-02-19T21:54:24.886Z,73.75
2023-02-19T21:56:53.059Z,73.66
2023-02-19T21:59:23.702Z,74.03
2023-02-19T22:01:50.796Z,74.28
2023-02-19T22:04:21.288Z,74.58
2023-02-19T22:06:48.409Z,74.43
2023-02-19T22:09:15.217Z,74.71
2023-02-19T22:11:42.482Z,74.85
2023-02-19T22:14:09.311Z,74.97
2023-02-19T22:16:36.095Z,75.12
2023-02-19T22:19:03.974Z,75.09
2023-02-19T22:21:33.160Z,75.27
2023-02-19T22:24:01.525Z,75.51
2023-02-19T22:26:32.430Z,75.73
2023-02-19T22:28:59.868Z,75.68
2023-02-19T22:31:27.872Z,75.63
2023-02-19T22:33:57.095Z,75.67
2023-02-19T22:36:27.696Z,75.68
2023-02-19T22:38:54.897Z,75.83
2023-02-19T22:41:22.251Z,75.97
2023-02-19T22:43:50.118Z,75.87
2023-02-19T22:46:21.289Z,75.75
2023-02-19T22:48:48.531Z,75.82
2023-02-19T22:51:18.736Z,75.89
2023-02-19T22:53:47.499Z,76.09
2023-02-19T22:56:16.848Z,75.76
2023-02-19T22:58:44.092Z,75.76
2023-02-19T23:01:12.527Z,75.91
2023-02-19T23:03:56.336Z,75.86
2023-02-19T23:06:26.032Z,75.75
2023-02-19T23:08:54.719Z,75.90
2023-02-19T23:11:26.000Z,75.67
2023-02-19T23:13:53.585Z,75.71
2023-02-19T23:16:20.804Z,75.94
2023-02-19T23:18:48.240Z,75.53
2023-02-19T23:21:16.853Z,75.78
2023-02-19T23:23:45.314Z,76.29
2023-02-19T23:26:13.735Z,76.02
2023-02-19T23:28:41.947Z,76.03
2023-02-19T23:31:09.848Z,75.86
2023-02-19T23:33:36.865Z,75.93
2023-02-19T23:36:04.055Z,76.09
2023-02-19T23:38:30.874Z,76.16
2023-02-19T23:40:58.987Z,75.99
2023-02-19T23:43:25.772Z,76.41
2023-02-19T23:45:52.941Z,76.36
2023-02-19T23:48:19.781Z,76.04
2023-02-19T23:50:46.525Z,75.97
2023-02-19T23:53:13.258Z,75.80
2023-02-19T23:55:40.071Z,76.17
2023-02-19T23:58:06.862Z,75.87
